createdAt,value
2022-08-22T00:03:09.861Z,101493.28
2022-08-22T00:05:56.492Z,101472.78
2022-08-22T00:15:57.765Z,101473.94
2022-08-22T00:25:59.095Z,101468.03
2022-08-22T00:36:00.362Z,101478.47
2022-08-22T00:46:01.625Z,101466.81
2022-08-22T01:06:31.878Z,101477.22
2022-08-22T01:16:33.134Z,101467.09
2022-08-22T01:26:34.408Z,101463.78
2022-08-22T01:36:38.198Z,101468.41
2022-08-22T01:46:39.473Z,101466.13
2022-08-22T01:56:40.762Z,101461.31
2022-08-22T02:06:42.030Z,101452.91
2022-08-22T02:16:43.296Z,101458.84
2022-08-22T02:26:44.547Z,101448.88
2022-08-22T02:36:45.879Z,101451.91
2022-08-22T02:46:47.179Z,101454.28
2022-08-22T02:56:48.429Z,101448.97
2022-08-22T03:06:49.666Z,101450.25
2022-08-22T03:16:50.921Z,101443.91
2022-08-22T03:26:52.194Z,101432.56
2022-08-22T03:36:53.451Z,101425.47
2022-08-22T03:46:54.732Z,101419.13
2022-08-22T03:56:58.906Z,101414.06
2022-08-22T04:07:01.896Z,101417.47
2022-08-22T04:17:03.156Z,101416.47
2022-08-22T04:27:04.446Z,101425.97
2022-08-22T04:37:05.741Z,101431.91
2022-08-22T04:47:07.015Z,101422.88
2022-08-22T04:57:08.275Z,101431.59
2022-08-22T05:07:09.590Z,101443.03
2022-08-22T05:17:10.869Z,101447.91
2022-08-22T05:27:16.748Z,101447.91
2022-08-22T05:37:20.432Z,101457.47
2022-08-22T05:47:21.747Z,101458.72
2022-08-22T05:57:23.017Z,101454.25
2022-08-22T06:07:24.300Z,101447.19
2022-08-22T06:17:25.600Z,101462.38
2022-08-22T06:27:26.930Z,101461.06
2022-08-22T06:37:32.663Z,101476.25
2022-08-22T06:47:35.813Z,101466.38
2022-08-22T06:57:37.586Z,101484.84
2022-08-22T07:07:39.013Z,101489.63
2022-08-22T07:27:55.994Z,101483.56
2022-08-22T07:38:00.741Z,101479.25
2022-08-22T07:48:02.756Z,101466.31
2022-08-22T07:58:08.731Z,101473.69
2022-08-22T08:08:15.548Z,101464.94
2022-08-22T08:18:21.684Z,101465.09
2022-08-22T08:28:23.141Z,101446.13
2022-08-22T08:38:24.661Z,101444.28
2022-08-22T08:48:26.069Z,101440.66
2022-08-22T08:58:27.499Z,101438.59
2022-08-22T09:08:28.916Z,101436.84
2022-08-22T09:18:30.454Z,101431.97
2022-08-22T09:28:31.838Z,101436.03
2022-08-22T09:38:33.125Z,101428.59
2022-08-22T09:48:36.168Z,101435.47
2022-08-22T09:58:40.824Z,101428.06
2022-08-22T10:08:46.062Z,101416.88
2022-08-22T10:18:53.751Z,101416.16
2022-08-22T10:28:56.949Z,101408.22
2022-08-22T10:38:58.326Z,101399.56
2022-08-22T10:49:00.320Z,101383.56
2022-08-22T10:59:09.342Z,101378.72
2022-08-22T11:09:10.716Z,101383.56
2022-08-22T11:19:14.704Z,101389.06
2022-08-22T11:29:17.075Z,101371.19
2022-08-22T11:39:19.680Z,101372.94
2022-08-22T11:49:21.098Z,101369.53
2022-08-22T11:59:28.433Z,101364.47
2022-08-22T12:09:29.961Z,101355.03
2022-08-22T12:19:32.752Z,101363.63
2022-08-22T12:29:39.985Z,101359.81
2022-08-22T12:39:46.649Z,101359.03
2022-08-22T12:49:55.815Z,101352.94
2022-08-22T13:00:03.794Z,101339.94
2022-08-22T13:10:11.798Z,101327.69
2022-08-22T13:20:20.808Z,101322.34
2022-08-22T13:30:26.274Z,101316.31
2022-08-22T13:40:34.764Z,101306.56
2022-08-22T13:50:53.107Z,101305.78
2022-08-22T14:00:58.073Z,101283.91
2022-08-22T14:11:02.021Z,101285.16
2022-08-22T14:21:10.816Z,101278.09
2022-08-22T14:31:18.075Z,101288.13
2022-08-22T14:41:24.926Z,101280.78
2022-08-22T14:51:32.937Z,101269.94
2022-08-22T15:01:40.930Z,101267.66
2022-08-22T15:11:46.896Z,101259.50
2022-08-22T15:21:55.271Z,101262.50
2022-08-22T15:42:13.624Z,101231.53
2022-08-22T15:52:19.533Z,101231.00
2022-08-22T16:02:21.492Z,101228.75
2022-08-22T16:12:23.066Z,101202.88
2022-08-22T16:22:24.473Z,101203.59
2022-08-22T16:32:25.990Z,101204.38
2022-08-22T16:42:27.277Z,101196.94
2022-08-22T16:52:28.589Z,101192.88
2022-08-22T17:02:30.073Z,101179.97
2022-08-22T17:12:31.461Z,101176.41
2022-08-22T17:22:32.847Z,101171.59
2022-08-22T17:32:37.976Z,101182.78
2022-08-22T17:42:45.839Z,101189.84
2022-08-22T17:52:56.706Z,101194.91
2022-08-22T18:03:02.143Z,101198.47
2022-08-22T18:13:10.227Z,101207.47
2022-08-22T18:23:21.498Z,101205.22
2022-08-22T18:43:51.962Z,101222.50
2022-08-22T18:53:53.227Z,101223.28
2022-08-22T19:03:54.625Z,101234.97
2022-08-22T19:13:56.157Z,101244.09
2022-08-22T19:23:57.583Z,101250.44
2022-08-22T19:33:59.324Z,101251.75
2022-08-22T19:44:00.742Z,101257.34
2022-08-22T19:54:02.061Z,101249.84
2022-08-22T20:04:03.470Z,101254.19
2022-08-22T20:14:04.797Z,101248.19
2022-08-22T20:24:06.257Z,101257.09
2022-08-22T20:34:07.698Z,101253.78
2022-08-22T20:44:08.982Z,101250.44
2022-08-22T20:54:19.104Z,101246.16
2022-08-22T21:04:20.466Z,101244.63
2022-08-22T21:14:21.845Z,101245.94
2022-08-22T21:24:23.274Z,101245.94
2022-08-22T21:34:27.242Z,101244.41
2022-08-22T21:44:28.509Z,101238.28
2022-08-22T21:54:29.759Z,101238.81
2022-08-22T22:04:31.108Z,101232.25
2022-08-22T22:14:32.354Z,101247.00
2022-08-22T22:24:33.653Z,101245.25
2022-08-22T22:34:34.902Z,101240.41
2022-08-22T22:44:36.140Z,101241.94
2022-08-22T22:54:37.446Z,101235.34
2022-08-22T23:04:38.839Z,101244.50
2022-08-22T23:14:42.720Z,101247.81
2022-08-22T23:24:44.022Z,101242.78
2022-08-22T23:34:47.707Z,101237.19
2022-08-22T23:44:48.966Z,101230.31
2022-08-22T23:54:51.544Z,101228.81
